Decoded Metar for LETU ( in ) (IATA:) | Meteo·Mobile Aviation Weather
aviador You're here:

LETU Decoded Metar

in
Report Time2019-08-21 18:00:00
UTC Time2019-08-21 18:10:50
Flight Rules vfr VFR
Wind300° at 06 kt
Visibility9999 m
Phenomena:N/A
Clouds:N/A
Expected CloudBase > 6,000 ft AGL from Temp-Dew spread
CeilingNone
Temp27°C
Dew Point12°C (39% RH)
Heat Index26.8°C
AAT25.4°C
QNH1019 hPa
Raw Report
METAR LETU 211800Z AUTO 30006KT 260V340 9999 NCD 27/12 Q1019=

Extra information for LETU:More info

Social comments